34 minutes ago
METAR EHVL 031255Z AUTO 01007KT 9999 OVC071 19/13 Q1014 BLU

METAR definition | Embed

METAR Vlieland Heliport

Vlieland Heliport is a heliport in Vlieland, The Netherlands. The field elevation is 37 ft.

This report was made for Vlieland Heliport on August 3, 2021 2:55 pm, local time.

Airport observations

The wind is from direction north (010°) with a speed of 7 kt.

Visibility is 6¼ mi or more.

There are overcast clouds at an altitude of 7,100 ft. The ceiling, broken or more, is 7,100 ft.

The temperature and wind chill are 66 °F. The dew point is 55 °F, the relative humidity is 68%. The air pressure at sea level is 29.94 inHg (QNH).

Daylight period

Today the sun rises at 6:00 am and sets at 9:31 pm. This applies to Vlieland Heliport, the universal daylight period may be different. The difference between the local time and UTC is +2 hour. Daylight saving time is currently in progress.

Historical data

Donate

Will you help us to keep Metar-Taf.com running?
Your contribution helps further development of the site and to pay for the expenses.

No more ads

Are you donating $ 5 or more? Then we'll never show you ads again, as a token of our eternal gratitude!
Log in before you donate

Do you want the flying weather of Vlieland Heliport on your website? Read more   Free!